sensor_id;sensor_type;location;lat;lon;timestamp;temperature;humidity
8408;DHT22;4241;48.452;9.216;2022-09-09T00:01:31;16.90;99.90
8408;DHT22;4241;48.452;9.216;2022-09-09T00:04:09;16.80;99.90
8408;DHT22;4241;48.452;9.216;2022-09-09T00:06:45;16.60;99.90
8408;DHT22;4241;48.452;9.216;2022-09-09T00:09:16;16.50;99.90
8408;DHT22;4241;48.452;9.216;2022-09-09T00:11:47;16.50;99.90
8408;DHT22;4241;48.452;9.216;2022-09-09T00:14:20;16.80;99.90
8408;DHT22;4241;48.452;9.216;2022-09-09T00:16:53;16.80;99.90
8408;DHT22;4241;48.452;9.216;2022-09-09T00:19:28;16.70;99.90
8408;DHT22;4241;48.452;9.216;2022-09-09T00:22:08;16.70;99.90
8408;DHT22;4241;48.452;9.216;2022-09-09T00:24:43;16.60;99.90
8408;DHT22;4241;48.452;9.216;2022-09-09T00:27:16;16.40;99.90
8408;DHT22;4241;48.452;9.216;2022-09-09T00:29:50;16.60;99.90
8408;DHT22;4241;48.452;9.216;2022-09-09T00:32:20;16.60;99.90
8408;DHT22;4241;48.452;9.216;2022-09-09T00:34:52;16.50;99.90
8408;DHT22;4241;48.452;9.216;2022-09-09T00:37:21;16.30;99.90
8408;DHT22;4241;48.452;9.216;2022-09-09T00:39:49;16.50;99.90
8408;DHT22;4241;48.452;9.216;2022-09-09T00:42:24;16.60;99.90
8408;DHT22;4241;48.452;9.216;2022-09-09T00:45:01;16.60;99.90
8408;DHT22;4241;48.452;9.216;2022-09-09T00:47:39;16.70;99.90
8408;DHT22;4241;48.452;9.216;2022-09-09T00:53:05;16.70;99.90
8408;DHT22;4241;48.452;9.216;2022-09-09T00:55:41;16.70;99.90
8408;DHT22;4241;48.452;9.216;2022-09-09T00:58:12;16.80;99.90
8408;DHT22;4241;48.452;9.216;2022-09-09T01:00:42;16.70;99.90
8408;DHT22;4241;48.452;9.216;2022-09-09T01:03:21;16.40;99.90
8408;DHT22;4241;48.452;9.216;2022-09-09T01:06:11;16.40;99.90
8408;DHT22;4241;48.452;9.216;2022-09-09T01:08:57;16.60;99.90
8408;DHT22;4241;48.452;9.216;2022-09-09T01:11:28;15.80;99.90
8408;DHT22;4241;48.452;9.216;2022-09-09T01:14:10;16.10;99.90
8408;DHT22;4241;48.452;9.216;2022-09-09T01:16:38;16.00;99.90
8408;DHT22;4241;48.452;9.216;2022-09-09T01:19:07;15.30;99.90
8408;DHT22;4241;48.452;9.216;2022-09-09T01:21:43;15.60;99.90
8408;DHT22;4241;48.452;9.216;2022-09-09T01:24:22;15.50;99.90
8408;DHT22;4241;48.452;9.216;2022-09-09T01:26:56;15.20;99.90
8408;DHT22;4241;48.452;9.216;2022-09-09T01:29:25;15.20;99.90
8408;DHT22;4241;48.452;9.216;2022-09-09T01:31:54;14.50;99.90
8408;DHT22;4241;48.452;9.216;2022-09-09T01:34:22;15.10;99.90
8408;DHT22;4241;48.452;9.216;2022-09-09T01:36:53;15.00;99.90
8408;DHT22;4241;48.452;9.216;2022-09-09T01:39:22;14.60;99.90
8408;DHT22;4241;48.452;9.216;2022-09-09T01:41:49;14.50;99.90
8408;DHT22;4241;48.452;9.216;2022-09-09T01:44:19;14.30;99.90
8408;DHT22;4241;48.452;9.216;2022-09-09T01:46:46;14.80;99.90
8408;DHT22;4241;48.452;9.216;2022-09-09T01:49:13;14.70;99.90
8408;DHT22;4241;48.452;9.216;2022-09-09T01:51:40;14.70;99.90
8408;DHT22;4241;48.452;9.216;2022-09-09T01:54:10;14.70;99.90
8408;DHT22;4241;48.452;9.216;2022-09-09T01:56:49;14.30;99.90
8408;DHT22;4241;48.452;9.216;2022-09-09T01:59:30;14.20;99.90
8408;DHT22;4241;48.452;9.216;2022-09-09T02:02:09;14.40;99.90
8408;DHT22;4241;48.452;9.216;2022-09-09T02:04:39;14.60;99.90
8408;DHT22;4241;48.452;9.216;2022-09-09T02:07:12;13.90;99.90
8408;DHT22;4241;48.452;9.216;2022-09-09T02:09:41;13.80;99.90
8408;DHT22;4241;48.452;9.216;2022-09-09T02:12:14;13.80;99.90
8408;DHT22;4241;48.452;9.216;2022-09-09T02:14:51;14.00;99.90
8408;DHT22;4241;48.452;9.216;2022-09-09T02:17:25;13.70;99.90
8408;DHT22;4241;48.452;9.216;2022-09-09T02:19:58;14.60;99.90
8408;DHT22;4241;48.452;9.216;2022-09-09T02:22:27;14.20;99.90
8408;DHT22;4241;48.452;9.216;2022-09-09T02:24:57;14.70;99.90
8408;DHT22;4241;48.452;9.216;2022-09-09T02:27:25;14.30;99.90
8408;DHT22;4241;48.452;9.216;2022-09-09T02:29:54;14.00;99.90
8408;DHT22;4241;48.452;9.216;2022-09-09T02:32:24;14.10;99.90
8408;DHT22;4241;48.452;9.216;2022-09-09T02:34:53;14.60;99.90
8408;DHT22;4241;48.452;9.216;2022-09-09T02:37:24;14.20;99.90
8408;DHT22;4241;48.452;9.216;2022-09-09T02:39:53;14.70;99.90
8408;DHT22;4241;48.452;9.216;2022-09-09T02:42:21;14.20;99.90
8408;DHT22;4241;48.452;9.216;2022-09-09T02:44:49;14.40;99.90
8408;DHT22;4241;48.452;9.216;2022-09-09T02:47:30;14.20;99.90
8408;DHT22;4241;48.452;9.216;2022-09-09T02:50:07;14.80;99.90
8408;DHT22;4241;48.452;9.216;2022-09-09T02:52:41;14.30;99.90
8408;DHT22;4241;48.452;9.216;2022-09-09T02:55:17;14.60;99.90
8408;DHT22;4241;48.452;9.216;2022-09-09T02:57:47;14.40;99.90
8408;DHT22;4241;48.452;9.216;2022-09-09T03:00:15;14.70;99.90
8408;DHT22;4241;48.452;9.216;2022-09-09T03:02:45;14.60;99.90
8408;DHT22;4241;48.452;9.216;2022-09-09T03:05:12;14.90;99.90
8408;DHT22;4241;48.452;9.216;2022-09-09T03:07:39;14.70;99.90
8408;DHT22;4241;48.452;9.216;2022-09-09T03:10:08;14.40;99.90
8408;DHT22;4241;48.452;9.216;2022-09-09T03:12:36;14.30;99.90
8408;DHT22;4241;48.452;9.216;2022-09-09T03:15:03;14.40;99.90
8408;DHT22;4241;48.452;9.216;2022-09-09T03:17:30;14.40;99.90
8408;DHT22;4241;48.452;9.216;2022-09-09T03:19:58;14.60;99.90
8408;DHT22;4241;48.452;9.216;2022-09-09T03:22:25;14.70;99.90
8408;DHT22;4241;48.452;9.216;2022-09-09T03:24:52;14.80;99.90
8408;DHT22;4241;48.452;9.216;2022-09-09T03:27:18;14.90;99.90
8408;DHT22;4241;48.452;9.216;2022-09-09T03:29:45;14.50;99.90
8408;DHT22;4241;48.452;9.216;2022-09-09T03:32:12;14.90;99.90
8408;DHT22;4241;48.452;9.216;2022-09-09T03:34:39;14.90;99.90
8408;DHT22;4241;48.452;9.216;2022-09-09T03:37:07;14.40;99.90
8408;DHT22;4241;48.452;9.216;2022-09-09T03:39:34;14.60;99.90
8408;DHT22;4241;48.452;9.216;2022-09-09T03:42:01;14.60;99.90
8408;DHT22;4241;48.452;9.216;2022-09-09T03:44:29;14.80;99.90
8408;DHT22;4241;48.452;9.216;2022-09-09T03:46:56;14.50;99.90
8408;DHT22;4241;48.452;9.216;2022-09-09T03:49:26;14.70;99.90
8408;DHT22;4241;48.452;9.216;2022-09-09T03:51:54;14.30;99.90
8408;DHT22;4241;48.452;9.216;2022-09-09T03:54:23;14.30;99.90
8408;DHT22;4241;48.452;9.216;2022-09-09T03:56:50;14.30;99.90
8408;DHT22;4241;48.452;9.216;2022-09-09T03:59:17;14.10;99.90
8408;DHT22;4241;48.452;9.216;2022-09-09T04:01:44;14.50;99.90
8408;DHT22;4241;48.452;9.216;2022-09-09T04:04:12;14.30;99.90
8408;DHT22;4241;48.452;9.216;2022-09-09T04:06:39;14.30;99.90
8408;DHT22;4241;48.452;9.216;2022-09-09T04:09:06;14.60;99.90
8408;DHT22;4241;48.452;9.216;2022-09-09T04:11:34;14.70;99.90
8408;DHT22;4241;48.452;9.216;2022-09-09T04:14:02;14.00;99.90
8408;DHT22;4241;48.452;9.216;2022-09-09T04:16:31;14.20;99.90
8408;DHT22;4241;48.452;9.216;2022-09-09T04:18:58;13.60;99.90
8408;DHT22;4241;48.452;9.216;2022-09-09T04:21:25;13.90;99.90
8408;DHT22;4241;48.452;9.216;2022-09-09T04:23:52;13.90;99.90
8408;DHT22;4241;48.452;9.216;2022-09-09T04:26:19;14.40;99.90
8408;DHT22;4241;48.452;9.216;2022-09-09T04:28:47;13.70;99.90
8408;DHT22;4241;48.452;9.216;2022-09-09T04:31:17;14.20;99.90
8408;DHT22;4241;48.452;9.216;2022-09-09T04:33:44;13.70;99.90
8408;DHT22;4241;48.452;9.216;2022-09-09T04:36:11;14.00;99.90
8408;DHT22;4241;48.452;9.216;2022-09-09T04:38:38;13.90;99.90
8408;DHT22;4241;48.452;9.216;2022-09-09T04:41:05;13.60;99.90
8408;DHT22;4241;48.452;9.216;2022-09-09T04:43:32;14.10;99.90
8408;DHT22;4241;48.452;9.216;2022-09-09T04:46:01;14.00;99.90
8408;DHT22;4241;48.452;9.216;2022-09-09T04:48:27;13.60;99.90
8408;DHT22;4241;48.452;9.216;2022-09-09T04:50:55;13.60;99.90
8408;DHT22;4241;48.452;9.216;2022-09-09T04:53:22;14.00;99.90
8408;DHT22;4241;48.452;9.216;2022-09-09T04:55:51;13.60;99.90
8408;DHT22;4241;48.452;9.216;2022-09-09T04:58:18;13.70;99.90
8408;DHT22;4241;48.452;9.216;2022-09-09T05:00:47;13.80;99.90
8408;DHT22;4241;48.452;9.216;2022-09-09T05:03:15;13.20;99.90
8408;DHT22;4241;48.452;9.216;2022-09-09T05:05:42;13.20;99.90
8408;DHT22;4241;48.452;9.216;2022-09-09T05:08:09;13.70;99.90
8408;DHT22;4241;48.452;9.216;2022-09-09T05:10:37;13.70;99.90
8408;DHT22;4241;48.452;9.216;2022-09-09T05:13:05;13.50;99.90
8408;DHT22;4241;48.452;9.216;2022-09-09T05:15:32;13.50;99.90
8408;DHT22;4241;48.452;9.216;2022-09-09T05:17:59;13.10;99.90
8408;DHT22;4241;48.452;9.216;2022-09-09T05:20:28;13.70;99.90
8408;DHT22;4241;48.452;9.216;2022-09-09T05:22:55;13.10;99.90
8408;DHT22;4241;48.452;9.216;2022-09-09T05:25:22;13.10;99.90
8408;DHT22;4241;48.452;9.216;2022-09-09T05:27:49;13.30;99.90
8408;DHT22;4241;48.452;9.216;2022-09-09T05:30:16;13.70;99.90
8408;DHT22;4241;48.452;9.216;2022-09-09T05:32:44;14.00;99.90
8408;DHT22;4241;48.452;9.216;2022-09-09T05:35:12;13.40;99.90
8408;DHT22;4241;48.452;9.216;2022-09-09T05:37:40;14.10;99.90
8408;DHT22;4241;48.452;9.216;2022-09-09T05:40:07;14.00;99.90
8408;DHT22;4241;48.452;9.216;2022-09-09T05:42:34;13.70;99.90
8408;DHT22;4241;48.452;9.216;2022-09-09T05:45:01;14.10;99.90
8408;DHT22;4241;48.452;9.216;2022-09-09T05:47:28;14.00;99.90
8408;DHT22;4241;48.452;9.216;2022-09-09T05:49:55;14.20;99.90
8408;DHT22;4241;48.452;9.216;2022-09-09T05:52:22;14.10;99.90
8408;DHT22;4241;48.452;9.216;2022-09-09T05:54:50;14.00;99.90
8408;DHT22;4241;48.452;9.216;2022-09-09T05:57:17;13.90;99.90
8408;DHT22;4241;48.452;9.216;2022-09-09T05:59:44;13.80;99.90
8408;DHT22;4241;48.452;9.216;2022-09-09T06:02:11;13.90;99.90
8408;DHT22;4241;48.452;9.216;2022-09-09T06:04:39;14.40;99.90
8408;DHT22;4241;48.452;9.216;2022-09-09T06:07:06;14.10;99.90
8408;DHT22;4241;48.452;9.216;2022-09-09T06:09:33;14.40;99.90
8408;DHT22;4241;48.452;9.216;2022-09-09T06:12:02;13.90;99.90
8408;DHT22;4241;48.452;9.216;2022-09-09T06:14:29;14.00;99.90
8408;DHT22;4241;48.452;9.216;2022-09-09T06:16:56;14.50;99.90
8408;DHT22;4241;48.452;9.216;2022-09-09T06:19:22;14.30;99.90
8408;DHT22;4241;48.452;9.216;2022-09-09T06:21:52;14.30;99.90
8408;DHT22;4241;48.452;9.216;2022-09-09T06:24:19;14.40;99.90
8408;DHT22;4241;48.452;9.216;2022-09-09T06:26:45;14.90;99.90
8408;DHT22;4241;48.452;9.216;2022-09-09T06:29:14;15.10;99.90
8408;DHT22;4241;48.452;9.216;2022-09-09T06:31:40;15.10;99.90
8408;DHT22;4241;48.452;9.216;2022-09-09T06:34:08;14.70;99.90
8408;DHT22;4241;48.452;9.216;2022-09-09T06:36:36;15.20;99.90
8408;DHT22;4241;48.452;9.216;2022-09-09T06:39:04;14.80;99.90
8408;DHT22;4241;48.452;9.216;2022-09-09T06:41:32;15.00;99.90
8408;DHT22;4241;48.452;9.216;2022-09-09T06:43:59;15.10;99.90
8408;DHT22;4241;48.452;9.216;2022-09-09T06:46:28;15.20;99.90
8408;DHT22;4241;48.452;9.216;2022-09-09T06:48:57;15.30;99.90
8408;DHT22;4241;48.452;9.216;2022-09-09T06:51:26;15.80;99.90
8408;DHT22;4241;48.452;9.216;2022-09-09T06:53:55;15.40;99.90
8408;DHT22;4241;48.452;9.216;2022-09-09T06:56:24;15.60;99.90
8408;DHT22;4241;48.452;9.216;2022-09-09T06:58:52;15.60;99.90
8408;DHT22;4241;48.452;9.216;2022-09-09T07:01:22;16.10;99.90
8408;DHT22;4241;48.452;9.216;2022-09-09T07:03:52;15.70;99.90
8408;DHT22;4241;48.452;9.216;2022-09-09T07:06:22;15.80;99.90
8408;DHT22;4241;48.452;9.216;2022-09-09T07:08:51;15.80;99.90
8408;DHT22;4241;48.452;9.216;2022-09-09T07:11:20;15.90;99.90
8408;DHT22;4241;48.452;9.216;2022-09-09T07:13:47;16.00;99.90
8408;DHT22;4241;48.452;9.216;2022-09-09T07:16:16;16.40;99.90
8408;DHT22;4241;48.452;9.216;2022-09-09T07:18:44;16.40;99.90
8408;DHT22;4241;48.452;9.216;2022-09-09T07:21:13;16.50;99.90
8408;DHT22;4241;48.452;9.216;2022-09-09T07:23:41;16.50;99.90
8408;DHT22;4241;48.452;9.216;2022-09-09T07:26:09;16.50;99.90
8408;DHT22;4241;48.452;9.216;2022-09-09T07:28:37;16.60;99.90
8408;DHT22;4241;48.452;9.216;2022-09-09T07:31:04;16.80;99.90
8408;DHT22;4241;48.452;9.216;2022-09-09T07:33:33;16.90;99.90
8408;DHT22;4241;48.452;9.216;2022-09-09T07:36:06;16.90;99.90
8408;DHT22;4241;48.452;9.216;2022-09-09T07:38:39;17.00;99.90
8408;DHT22;4241;48.452;9.216;2022-09-09T07:41:07;17.20;99.90
8408;DHT22;4241;48.452;9.216;2022-09-09T07:43:37;17.30;99.90
8408;DHT22;4241;48.452;9.216;2022-09-09T07:46:04;17.40;99.90
8408;DHT22;4241;48.452;9.216;2022-09-09T07:48:31;17.60;99.90
8408;DHT22;4241;48.452;9.216;2022-09-09T07:51:06;17.70;99.90
8408;DHT22;4241;48.452;9.216;2022-09-09T07:53:34;17.70;99.90
8408;DHT22;4241;48.452;9.216;2022-09-09T07:56:08;17.80;99.90
8408;DHT22;4241;48.452;9.216;2022-09-09T07:58:35;17.80;99.90
8408;DHT22;4241;48.452;9.216;2022-09-09T08:01:07;17.90;99.90
8408;DHT22;4241;48.452;9.216;2022-09-09T08:03:35;18.00;99.90
8408;DHT22;4241;48.452;9.216;2022-09-09T08:06:02;18.00;99.90
8408;DHT22;4241;48.452;9.216;2022-09-09T08:08:30;18.10;99.90
8408;DHT22;4241;48.452;9.216;2022-09-09T08:11:04;18.10;99.90
8408;DHT22;4241;48.452;9.216;2022-09-09T08:13:34;18.10;99.90
8408;DHT22;4241;48.452;9.216;2022-09-09T08:16:09;18.00;99.90
8408;DHT22;4241;48.452;9.216;2022-09-09T08:18:37;18.00;99.90
8408;DHT22;4241;48.452;9.216;2022-09-09T08:21:08;18.20;99.90
8408;DHT22;4241;48.452;9.216;2022-09-09T08:23:38;18.20;99.90
8408;DHT22;4241;48.452;9.216;2022-09-09T08:26:10;18.30;99.90
8408;DHT22;4241;48.452;9.216;2022-09-09T08:28:39;18.20;99.90
8408;DHT22;4241;48.452;9.216;2022-09-09T08:31:08;18.10;99.90
8408;DHT22;4241;48.452;9.216;2022-09-09T08:33:35;18.30;99.90
8408;DHT22;4241;48.452;9.216;2022-09-09T08:36:04;17.80;99.90
8408;DHT22;4241;48.452;9.216;2022-09-09T08:38:31;17.70;99.90
8408;DHT22;4241;48.452;9.216;2022-09-09T08:41:07;17.60;99.90
8408;DHT22;4241;48.452;9.216;2022-09-09T08:43:38;17.70;99.90
8408;DHT22;4241;48.452;9.216;2022-09-09T08:46:11;17.80;99.90
8408;DHT22;4241;48.452;9.216;2022-09-09T08:48:50;17.90;99.90
8408;DHT22;4241;48.452;9.216;2022-09-09T08:51:19;17.70;99.90
8408;DHT22;4241;48.452;9.216;2022-09-09T08:53:48;18.10;99.90
8408;DHT22;4241;48.452;9.216;2022-09-09T08:56:18;18.20;99.90
8408;DHT22;4241;48.452;9.216;2022-09-09T08:58:50;18.10;99.90
8408;DHT22;4241;48.452;9.216;2022-09-09T09:01:35;18.10;99.90
8408;DHT22;4241;48.452;9.216;2022-09-09T09:04:16;18.20;99.90
8408;DHT22;4241;48.452;9.216;2022-09-09T09:06:52;18.30;99.90
8408;DHT22;4241;48.452;9.216;2022-09-09T09:09:24;18.50;99.90
8408;DHT22;4241;48.452;9.216;2022-09-09T09:11:55;19.20;99.90
8408;DHT22;4241;48.452;9.216;2022-09-09T09:14:28;19.90;99.90
8408;DHT22;4241;48.452;9.216;2022-09-09T09:17:00;20.10;99.90
8408;DHT22;4241;48.452;9.216;2022-09-09T09:19:29;20.30;99.90
8408;DHT22;4241;48.452;9.216;2022-09-09T09:22:00;20.10;99.90
8408;DHT22;4241;48.452;9.216;2022-09-09T09:24:36;20.10;99.90
8408;DHT22;4241;48.452;9.216;2022-09-09T09:27:12;20.10;99.90
8408;DHT22;4241;48.452;9.216;2022-09-09T09:29:42;19.70;99.90
8408;DHT22;4241;48.452;9.216;2022-09-09T09:32:14;20.00;99.90
8408;DHT22;4241;48.452;9.216;2022-09-09T09:34:48;20.30;99.90
8408;DHT22;4241;48.452;9.216;2022-09-09T09:37:17;20.50;99.90
8408;DHT22;4241;48.452;9.216;2022-09-09T09:39:47;20.90;99.90
8408;DHT22;4241;48.452;9.216;2022-09-09T09:42:16;20.80;99.90
8408;DHT22;4241;48.452;9.216;2022-09-09T09:44:45;20.80;99.90
8408;DHT22;4241;48.452;9.216;2022-09-09T09:47:13;21.00;99.90
8408;DHT22;4241;48.452;9.216;2022-09-09T09:49:51;20.90;99.90
8408;DHT22;4241;48.452;9.216;2022-09-09T09:52:22;21.40;99.90
8408;DHT22;4241;48.452;9.216;2022-09-09T09:54:49;21.40;99.90
8408;DHT22;4241;48.452;9.216;2022-09-09T09:57:17;21.50;99.90
8408;DHT22;4241;48.452;9.216;2022-09-09T09:59:46;21.90;99.90
8408;DHT22;4241;48.452;9.216;2022-09-09T10:02:18;21.80;99.90
8408;DHT22;4241;48.452;9.216;2022-09-09T10:04:46;21.20;99.90
8408;DHT22;4241;48.452;9.216;2022-09-09T10:07:16;21.30;99.90
8408;DHT22;4241;48.452;9.216;2022-09-09T10:09:43;21.40;99.90
8408;DHT22;4241;48.452;9.216;2022-09-09T10:12:19;21.50;99.90
8408;DHT22;4241;48.452;9.216;2022-09-09T10:14:56;21.40;99.90
8408;DHT22;4241;48.452;9.216;2022-09-09T10:17:31;21.10;99.90
8408;DHT22;4241;48.452;9.216;2022-09-09T10:20:14;20.60;99.90
8408;DHT22;4241;48.452;9.216;2022-09-09T10:22:49;20.30;99.90
8408;DHT22;4241;48.452;9.216;2022-09-09T10:25:33;20.60;99.90
8408;DHT22;4241;48.452;9.216;2022-09-09T10:28:27;20.80;99.90
8408;DHT22;4241;48.452;9.216;2022-09-09T10:31:07;20.40;99.90
8408;DHT22;4241;48.452;9.216;2022-09-09T10:33:43;20.50;99.90
8408;DHT22;4241;48.452;9.216;2022-09-09T10:36:18;21.40;99.90
8408;DHT22;4241;48.452;9.216;2022-09-09T10:38:47;21.80;99.90
8408;DHT22;4241;48.452;9.216;2022-09-09T10:41:19;21.80;99.90
8408;DHT22;4241;48.452;9.216;2022-09-09T10:46:58;22.00;99.90
8408;DHT22;4241;48.452;9.216;2022-09-09T10:49:46;21.30;99.90
8408;DHT22;4241;48.452;9.216;2022-09-09T10:52:22;20.90;99.90
8408;DHT22;4241;48.452;9.216;2022-09-09T10:54:56;20.80;99.90
8408;DHT22;4241;48.452;9.216;2022-09-09T10:57:31;20.90;99.90
8408;DHT22;4241;48.452;9.216;2022-09-09T11:00:04;21.40;99.90
8408;DHT22;4241;48.452;9.216;2022-09-09T11:02:34;22.00;99.90
8408;DHT22;4241;48.452;9.216;2022-09-09T11:05:05;22.30;99.90
8408;DHT22;4241;48.452;9.216;2022-09-09T11:07:37;22.40;99.90
8408;DHT22;4241;48.452;9.216;2022-09-09T11:10:17;22.60;99.90
8408;DHT22;4241;48.452;9.216;2022-09-09T11:12:47;22.40;99.90
8408;DHT22;4241;48.452;9.216;2022-09-09T11:15:20;22.30;99.90
8408;DHT22;4241;48.452;9.216;2022-09-09T11:17:50;22.40;99.90
8408;DHT22;4241;48.452;9.216;2022-09-09T11:20:20;22.10;99.00
8408;DHT22;4241;48.452;9.216;2022-09-09T11:22:50;22.40;99.90
8408;DHT22;4241;48.452;9.216;2022-09-09T11:25:22;22.70;99.90
8408;DHT22;4241;48.452;9.216;2022-09-09T11:28:01;22.30;99.90
8408;DHT22;4241;48.452;9.216;2022-09-09T11:30:42;22.40;99.90
8408;DHT22;4241;48.452;9.216;2022-09-09T11:33:38;22.80;99.90
8408;DHT22;4241;48.452;9.216;2022-09-09T11:36:23;23.30;99.90
8408;DHT22;4241;48.452;9.216;2022-09-09T11:39:01;22.80;99.90
8408;DHT22;4241;48.452;9.216;2022-09-09T11:41:35;22.60;99.90
8408;DHT22;4241;48.452;9.216;2022-09-09T11:44:10;21.40;99.90
8408;DHT22;4241;48.452;9.216;2022-09-09T11:46:39;20.60;99.90
8408;DHT22;4241;48.452;9.216;2022-09-09T11:49:26;19.90;99.90
8408;DHT22;4241;48.452;9.216;2022-09-09T11:51:53;19.90;99.90
8408;DHT22;4241;48.452;9.216;2022-09-09T11:54:31;20.20;99.90
8408;DHT22;4241;48.452;9.216;2022-09-09T11:56:58;20.20;99.90
8408;DHT22;4241;48.452;9.216;2022-09-09T11:59:27;19.80;99.90
8408;DHT22;4241;48.452;9.216;2022-09-09T12:01:56;19.40;99.90
8408;DHT22;4241;48.452;9.216;2022-09-09T12:04:32;19.20;99.90
8408;DHT22;4241;48.452;9.216;2022-09-09T12:07:01;19.30;99.90
8408;DHT22;4241;48.452;9.216;2022-09-09T12:09:43;19.50;99.90
8408;DHT22;4241;48.452;9.216;2022-09-09T12:12:28;19.80;99.90
8408;DHT22;4241;48.452;9.216;2022-09-09T12:15:18;20.40;99.90
8408;DHT22;4241;48.452;9.216;2022-09-09T12:17:48;20.20;99.90
8408;DHT22;4241;48.452;9.216;2022-09-09T12:20:19;20.30;99.90
8408;DHT22;4241;48.452;9.216;2022-09-09T12:23:05;20.50;99.90
8408;DHT22;4241;48.452;9.216;2022-09-09T12:25:49;20.60;99.90
8408;DHT22;4241;48.452;9.216;2022-09-09T12:28:21;20.80;99.90
8408;DHT22;4241;48.452;9.216;2022-09-09T12:30:55;20.80;99.90
8408;DHT22;4241;48.452;9.216;2022-09-09T12:33:33;20.50;99.90
8408;DHT22;4241;48.452;9.216;2022-09-09T12:36:03;20.70;99.90
8408;DHT22;4241;48.452;9.216;2022-09-09T12:38:34;20.50;99.90
8408;DHT22;4241;48.452;9.216;2022-09-09T12:41:03;20.60;99.90
8408;DHT22;4241;48.452;9.216;2022-09-09T12:43:29;20.30;99.90
8408;DHT22;4241;48.452;9.216;2022-09-09T12:45:58;20.20;99.90
8408;DHT22;4241;48.452;9.216;2022-09-09T12:48:33;20.20;99.90
8408;DHT22;4241;48.452;9.216;2022-09-09T12:51:02;20.40;99.90
8408;DHT22;4241;48.452;9.216;2022-09-09T12:53:34;20.40;99.90
8408;DHT22;4241;48.452;9.216;2022-09-09T12:56:04;20.40;99.90
8408;DHT22;4241;48.452;9.216;2022-09-09T12:58:33;20.20;99.90
8408;DHT22;4241;48.452;9.216;2022-09-09T13:01:01;20.00;99.90
8408;DHT22;4241;48.452;9.216;2022-09-09T13:03:31;20.60;99.90
8408;DHT22;4241;48.452;9.216;2022-09-09T13:05:59;20.80;99.90
8408;DHT22;4241;48.452;9.216;2022-09-09T13:08:37;20.30;99.90
8408;DHT22;4241;48.452;9.216;2022-09-09T13:11:07;20.20;99.90
8408;DHT22;4241;48.452;9.216;2022-09-09T13:13:36;20.50;99.90
8408;DHT22;4241;48.452;9.216;2022-09-09T13:16:06;20.90;99.90
8408;DHT22;4241;48.452;9.216;2022-09-09T13:18:37;21.00;99.90
8408;DHT22;4241;48.452;9.216;2022-09-09T13:23:35;20.90;99.90
8408;DHT22;4241;48.452;9.216;2022-09-09T13:26:05;20.80;99.90
8408;DHT22;4241;48.452;9.216;2022-09-09T13:28:33;20.70;99.90
8408;DHT22;4241;48.452;9.216;2022-09-09T13:31:01;20.60;99.90
8408;DHT22;4241;48.452;9.216;2022-09-09T13:33:33;21.00;99.90
8408;DHT22;4241;48.452;9.216;2022-09-09T13:36:03;21.00;99.90
8408;DHT22;4241;48.452;9.216;2022-09-09T13:38:33;21.20;99.90
8408;DHT22;4241;48.452;9.216;2022-09-09T13:41:05;21.10;99.90
8408;DHT22;4241;48.452;9.216;2022-09-09T13:43:36;21.20;99.90
8408;DHT22;4241;48.452;9.216;2022-09-09T13:46:05;20.90;99.90
8408;DHT22;4241;48.452;9.216;2022-09-09T13:48:32;20.90;99.90
8408;DHT22;4241;48.452;9.216;2022-09-09T13:51:01;20.60;99.90
8408;DHT22;4241;48.452;9.216;2022-09-09T13:53:31;20.30;99.90
8408;DHT22;4241;48.452;9.216;2022-09-09T13:55:58;20.80;99.90
8408;DHT22;4241;48.452;9.216;2022-09-09T13:58:28;20.80;99.90
8408;DHT22;4241;48.452;9.216;2022-09-09T14:00:55;21.20;99.90
8408;DHT22;4241;48.452;9.216;2022-09-09T14:03:22;21.50;99.90
8408;DHT22;4241;48.452;9.216;2022-09-09T14:05:49;21.20;99.90
8408;DHT22;4241;48.452;9.216;2022-09-09T14:08:24;20.90;99.90
8408;DHT22;4241;48.452;9.216;2022-09-09T14:10:52;20.80;99.90
8408;DHT22;4241;48.452;9.216;2022-09-09T14:13:25;20.70;99.90
8408;DHT22;4241;48.452;9.216;2022-09-09T14:15:53;20.60;99.90
8408;DHT22;4241;48.452;9.216;2022-09-09T14:18:20;20.80;99.90
8408;DHT22;4241;48.452;9.216;2022-09-09T14:20:48;20.20;99.90
8408;DHT22;4241;48.452;9.216;2022-09-09T14:23:16;20.30;99.90
8408;DHT22;4241;48.452;9.216;2022-09-09T14:25:43;20.20;99.90
8408;DHT22;4241;48.452;9.216;2022-09-09T14:28:11;20.50;99.90
8408;DHT22;4241;48.452;9.216;2022-09-09T14:30:39;20.70;99.90
8408;DHT22;4241;48.452;9.216;2022-09-09T14:33:10;20.80;99.90
8408;DHT22;4241;48.452;9.216;2022-09-09T14:35:37;20.70;99.90
8408;DHT22;4241;48.452;9.216;2022-09-09T14:38:06;20.70;99.90
8408;DHT22;4241;48.452;9.216;2022-09-09T14:40:34;20.50;99.90
8408;DHT22;4241;48.452;9.216;2022-09-09T14:43:01;20.70;99.90
8408;DHT22;4241;48.452;9.216;2022-09-09T14:45:29;21.00;99.90
8408;DHT22;4241;48.452;9.216;2022-09-09T14:47:55;21.20;99.90
8408;DHT22;4241;48.452;9.216;2022-09-09T14:50:24;21.10;99.90
8408;DHT22;4241;48.452;9.216;2022-09-09T14:52:50;20.90;99.90
8408;DHT22;4241;48.452;9.216;2022-09-09T14:55:17;20.90;99.90
8408;DHT22;4241;48.452;9.216;2022-09-09T14:57:45;20.60;99.90
8408;DHT22;4241;48.452;9.216;2022-09-09T15:00:12;20.50;99.90
8408;DHT22;4241;48.452;9.216;2022-09-09T15:02:40;20.60;99.90
8408;DHT22;4241;48.452;9.216;2022-09-09T15:05:07;20.80;99.90
8408;DHT22;4241;48.452;9.216;2022-09-09T15:07:36;20.90;99.90
8408;DHT22;4241;48.452;9.216;2022-09-09T15:10:04;20.80;99.90
8408;DHT22;4241;48.452;9.216;2022-09-09T15:12:32;20.20;99.90
8408;DHT22;4241;48.452;9.216;2022-09-09T15:15:01;20.00;99.90
8408;DHT22;4241;48.452;9.216;2022-09-09T15:17:27;19.90;99.90
8408;DHT22;4241;48.452;9.216;2022-09-09T15:22:21;20.80;99.90
8408;DHT22;4241;48.452;9.216;2022-09-09T15:24:51;20.70;99.90
8408;DHT22;4241;48.452;9.216;2022-09-09T15:27:20;21.60;99.90
8408;DHT22;4241;48.452;9.216;2022-09-09T15:29:48;20.40;99.90
8408;DHT22;4241;48.452;9.216;2022-09-09T15:32:15;20.10;99.90
8408;DHT22;4241;48.452;9.216;2022-09-09T15:34:42;19.80;99.90
8408;DHT22;4241;48.452;9.216;2022-09-09T15:37:10;20.10;99.90
8408;DHT22;4241;48.452;9.216;2022-09-09T15:39:38;20.10;99.90
8408;DHT22;4241;48.452;9.216;2022-09-09T15:42:07;20.30;99.90
8408;DHT22;4241;48.452;9.216;2022-09-09T15:44:39;20.00;98.80
8408;DHT22;4241;48.452;9.216;2022-09-09T15:47:07;20.10;98.60
8408;DHT22;4241;48.452;9.216;2022-09-09T15:49:37;19.90;98.60
8408;DHT22;4241;48.452;9.216;2022-09-09T15:52:04;19.80;99.90
8408;DHT22;4241;48.452;9.216;2022-09-09T15:54:33;20.30;99.90
8408;DHT22;4241;48.452;9.216;2022-09-09T15:57:02;20.50;99.50
8408;DHT22;4241;48.452;9.216;2022-09-09T15:59:31;20.60;98.90
8408;DHT22;4241;48.452;9.216;2022-09-09T16:01:59;20.40;98.90
8408;DHT22;4241;48.452;9.216;2022-09-09T16:04:27;20.50;99.90
8408;DHT22;4241;48.452;9.216;2022-09-09T16:06:57;20.40;98.40
8408;DHT22;4241;48.452;9.216;2022-09-09T16:09:25;21.00;99.90
8408;DHT22;4241;48.452;9.216;2022-09-09T16:11:52;20.80;96.10
8408;DHT22;4241;48.452;9.216;2022-09-09T16:14:19;20.90;97.40
8408;DHT22;4241;48.452;9.216;2022-09-09T16:16:48;20.40;98.00
8408;DHT22;4241;48.452;9.216;2022-09-09T16:19:14;20.30;98.90
8408;DHT22;4241;48.452;9.216;2022-09-09T16:21:43;20.10;99.90
8408;DHT22;4241;48.452;9.216;2022-09-09T16:24:12;20.00;99.90
8408;DHT22;4241;48.452;9.216;2022-09-09T16:26:41;20.40;99.90
8408;DHT22;4241;48.452;9.216;2022-09-09T16:29:11;21.40;98.20
8408;DHT22;4241;48.452;9.216;2022-09-09T16:31:38;22.00;98.20
8408;DHT22;4241;48.452;9.216;2022-09-09T16:34:07;22.60;96.00